Terminal Aerodrome Forecast
Issued by NWS Portland, ME

Home | Current Version | Previous Version | Text Only | Print | Product List | Glossary On
Versions: 1 2 3 4 5 6 7 8 9 10 11 12 13 14 15 16 17 18 19 20 21 22 23 24 25 26
046
FTUS41 KGYX 210527
TAFCON
TAF
KCON 210527Z 2106/2206 00000KT 1/4SM FG VV002 WS015/25040KT
      TEMPO 2111/2114 2SM BR OVC004
     FM211400 22008KT P6SM SCT050 BKN100 WS020/26040KT
     FM212100 31007KT P6SM BKN050=

USA.gov is the U.S. government's official web portal to all federal, state and local government web resources and services.